createdAt,value
2023-03-06T00:01:18.590Z,3.15
2023-03-06T00:04:03.932Z,2.97
2023-03-06T00:06:49.579Z,2.42
2023-03-06T00:09:35.043Z,2.40
2023-03-06T00:12:20.410Z,2.90
2023-03-06T00:15:06.620Z,2.75
2023-03-06T00:17:52.745Z,2.53
2023-03-06T00:20:40.621Z,2.00
2023-03-06T00:23:27.536Z,2.42
2023-03-06T00:26:14.716Z,2.67
2023-03-06T00:29:00.575Z,3.08
2023-03-06T00:31:47.886Z,2.60
2023-03-06T00:34:33.337Z,2.25
2023-03-06T00:37:19.089Z,1.85
2023-03-06T00:40:13.987Z,2.47
2023-03-06T00:42:59.386Z,2.22
2023-03-06T00:45:44.728Z,2.15
2023-03-06T00:48:30.100Z,3.15
2023-03-06T00:51:17.175Z,1.98
2023-03-06T00:54:02.272Z,4.50
2023-03-06T00:56:47.647Z,3.63
2023-03-06T00:59:33.210Z,4.22
2023-03-06T01:02:18.601Z,2.17
2023-03-06T01:05:04.652Z,3.28
2023-03-06T01:07:50.078Z,4.22
2023-03-06T01:10:39.218Z,2.03
2023-03-06T01:13:25.049Z,2.50
2023-03-06T01:16:14.079Z,2.63
2023-03-06T01:18:59.528Z,2.63
2023-03-06T01:21:45.429Z,2.40
2023-03-06T01:24:31.202Z,2.55
2023-03-06T01:27:16.582Z,1.92
2023-03-06T01:30:04.578Z,1.63
2023-03-06T01:32:50.147Z,3.58
2023-03-06T01:35:37.735Z,1.50
2023-03-06T01:38:23.609Z,1.67
2023-03-06T01:41:10.888Z,1.70
2023-03-06T01:43:56.319Z,2.47
2023-03-06T01:46:43.377Z,2.53
2023-03-06T01:49:38.586Z,1.52
2023-03-06T01:52:27.014Z,2.88
2023-03-06T01:55:19.796Z,2.38
2023-03-06T01:58:09.228Z,2.30
2023-03-06T02:00:55.311Z,1.85
2023-03-06T02:03:43.691Z,1.67
2023-03-06T02:06:29.086Z,1.77
2023-03-06T02:09:14.905Z,2.63
2023-03-06T02:12:01.992Z,1.30
2023-03-06T02:14:48.274Z,2.70
2023-03-06T02:17:35.468Z,1.98
2023-03-06T02:20:38.325Z,1.67
2023-03-06T02:23:40.753Z,2.08
2023-03-06T02:26:29.277Z,1.15
2023-03-06T02:29:20.487Z,1.50
2023-03-06T02:32:06.925Z,2.30
2023-03-06T02:34:56.264Z,3.03
2023-03-06T02:37:41.986Z,2.45
2023-03-06T02:40:27.433Z,2.00
2023-03-06T02:43:16.027Z,1.65
2023-03-06T02:46:02.866Z,1.85
2023-03-06T02:48:48.398Z,2.75
2023-03-06T02:51:35.045Z,1.42
2023-03-06T02:54:20.411Z,1.35
2023-03-06T02:57:06.016Z,1.63
2023-03-06T02:59:51.406Z,2.25
2023-03-06T03:02:37.886Z,1.45
2023-03-06T03:05:24.149Z,2.13
2023-03-06T03:08:16.182Z,2.35
2023-03-06T03:11:01.915Z,1.77
2023-03-06T03:13:53.033Z,3.20
2023-03-06T03:16:41.992Z,1.90
2023-03-06T03:19:28.168Z,2.63
2023-03-06T03:22:14.406Z,1.30
2023-03-06T03:24:59.913Z,2.35
2023-03-06T03:27:46.065Z,2.05
2023-03-06T03:30:31.577Z,2.67
2023-03-06T03:33:17.183Z,1.80
2023-03-06T03:36:05.485Z,1.83
2023-03-06T03:38:52.902Z,3.28
2023-03-06T03:41:38.466Z,1.85
2023-03-06T03:44:26.653Z,2.65
2023-03-06T03:47:12.030Z,2.50
2023-03-06T03:49:57.572Z,1.90
2023-03-06T03:52:43.351Z,1.60
2023-03-06T03:55:29.997Z,1.65
2023-03-06T03:58:15.877Z,4.03
2023-03-06T04:01:02.322Z,2.63
2023-03-06T04:03:47.799Z,3.67
2023-03-06T04:06:34.906Z,3.35
2023-03-06T04:09:20.911Z,4.53
2023-03-06T04:12:07.557Z,4.15
2023-03-06T04:14:54.985Z,5.32
2023-03-06T04:17:41.068Z,4.57
2023-03-06T04:20:31.452Z,3.25
2023-03-06T04:23:19.850Z,3.75
2023-03-06T04:26:06.009Z,2.67
2023-03-06T04:28:51.414Z,4.13
2023-03-06T04:31:37.332Z,3.20
2023-03-06T04:34:22.788Z,3.85
2023-03-06T04:37:17.943Z,4.35
2023-03-06T04:40:04.219Z,4.55
2023-03-06T04:42:50.028Z,1.85
2023-03-06T04:45:35.935Z,4.50
2023-03-06T04:48:21.067Z,4.28
2023-03-06T04:51:06.940Z,2.88
2023-03-06T04:53:52.372Z,4.32
2023-03-06T04:56:37.782Z,2.55
2023-03-06T04:59:23.272Z,4.63
2023-03-06T05:02:08.683Z,5.53
2023-03-06T05:04:54.161Z,2.70
2023-03-06T05:07:40.109Z,3.00
2023-03-06T05:10:26.802Z,2.28
2023-03-06T05:13:12.177Z,3.63
2023-03-06T05:16:03.027Z,2.15
2023-03-06T05:18:50.673Z,2.95
2023-03-06T05:21:36.099Z,3.92
2023-03-06T05:24:21.602Z,1.60
2023-03-06T05:27:08.542Z,2.33
2023-03-06T05:29:55.517Z,2.78
2023-03-06T05:32:40.960Z,1.75
2023-03-06T05:35:26.463Z,2.05
2023-03-06T05:38:12.406Z,1.40
2023-03-06T05:40:57.810Z,1.92
2023-03-06T05:43:44.744Z,3.92
2023-03-06T05:46:30.430Z,2.17
2023-03-06T05:49:16.483Z,3.10
2023-03-06T05:52:04.685Z,3.13
2023-03-06T05:54:52.160Z,2.55
2023-03-06T05:57:37.660Z,1.90
2023-03-06T06:00:24.193Z,2.20
2023-03-06T06:03:09.671Z,3.97
2023-03-06T06:05:55.167Z,4.07
2023-03-06T06:08:41.344Z,2.22
2023-03-06T06:11:26.462Z,1.90
2023-03-06T06:14:12.182Z,3.83
2023-03-06T06:16:57.676Z,6.00
2023-03-06T06:19:43.372Z,3.88
2023-03-06T06:22:28.890Z,2.55
2023-03-06T06:25:15.295Z,2.58
2023-03-06T06:28:00.995Z,3.67
2023-03-06T06:30:46.187Z,3.40
2023-03-06T06:33:31.708Z,2.53
2023-03-06T06:36:19.546Z,3.88
2023-03-06T06:39:05.930Z,2.25
2023-03-06T06:42:05.891Z,2.50
2023-03-06T06:44:55.249Z,2.35
2023-03-06T06:47:41.494Z,2.53
2023-03-06T06:50:28.256Z,3.45
2023-03-06T06:53:13.767Z,3.25
2023-03-06T06:56:00.062Z,1.48
2023-03-06T06:58:45.271Z,2.05
2023-03-06T07:01:30.815Z,3.03
2023-03-06T07:04:16.727Z,2.63
2023-03-06T07:07:02.603Z,2.55
2023-03-06T07:09:47.977Z,2.10
2023-03-06T07:12:34.927Z,1.90
2023-03-06T07:15:20.172Z,2.45
2023-03-06T07:18:05.473Z,1.85
2023-03-06T07:20:52.952Z,2.33
2023-03-06T07:23:39.082Z,1.77
2023-03-06T07:26:26.131Z,1.83
2023-03-06T07:29:11.460Z,2.08
2023-03-06T07:31:57.032Z,2.58
2023-03-06T07:34:44.172Z,1.85
2023-03-06T07:37:29.461Z,2.38
2023-03-06T07:40:14.738Z,1.55
2023-03-06T07:43:13.224Z,1.80
2023-03-06T07:46:09.671Z,2.05
2023-03-06T07:48:55.130Z,1.63
2023-03-06T07:51:40.446Z,1.52
2023-03-06T07:54:25.701Z,1.30
2023-03-06T07:57:11.091Z,1.52
2023-03-06T07:59:56.722Z,1.20
2023-03-06T08:02:42.990Z,2.72
2023-03-06T08:05:28.226Z,2.00
2023-03-06T08:08:13.939Z,2.05
2023-03-06T08:10:59.224Z,2.15
2023-03-06T08:13:45.057Z,1.48
2023-03-06T08:16:30.750Z,2.00
2023-03-06T08:19:16.677Z,3.58
2023-03-06T08:22:03.619Z,1.45
2023-03-06T08:24:48.797Z,1.70
2023-03-06T08:27:34.466Z,3.47
2023-03-06T08:30:21.493Z,1.98
2023-03-06T08:33:06.971Z,1.85
2023-03-06T08:35:52.696Z,1.77
2023-03-06T08:38:38.283Z,1.20
2023-03-06T09:41:01.381Z,1.02
2023-03-06T09:43:50.128Z,1.20
2023-03-06T09:46:51.131Z,1.45
2023-03-06T09:50:20.263Z,1.50
2023-03-06T09:53:24.429Z,1.00
2023-03-06T09:56:20.588Z,1.05
2023-03-06T09:59:18.987Z,1.48
2023-03-06T10:02:16.029Z,1.27
2023-03-06T10:05:06.876Z,1.45
2023-03-06T10:08:00.678Z,1.52
2023-03-06T10:11:08.583Z,1.42
2023-03-06T10:14:07.626Z,1.85
2023-03-06T10:16:53.819Z,1.17
2023-03-06T10:19:42.165Z,1.80
2023-03-06T10:22:31.140Z,2.15
2023-03-06T10:25:30.146Z,1.38
2023-03-06T10:28:29.348Z,1.30
2023-03-06T10:31:26.596Z,2.00
2023-03-06T10:34:35.400Z,1.50
2023-03-06T10:37:22.602Z,1.02
2023-03-06T10:40:21.537Z,1.42
2023-03-06T10:43:12.180Z,1.80
2023-03-06T10:45:58.368Z,1.42
2023-03-06T10:48:57.907Z,2.40
2023-03-06T10:51:57.285Z,1.40
2023-03-06T10:54:44.597Z,1.80
2023-03-06T10:57:31.793Z,1.35
2023-03-06T11:00:30.133Z,1.50
2023-03-06T11:03:24.119Z,1.30
2023-03-06T11:06:15.225Z,1.73
2023-03-06T11:09:24.669Z,1.48
2023-03-06T11:12:32.202Z,1.63
2023-03-06T11:15:22.388Z,1.70
2023-03-06T11:18:07.677Z,1.50
2023-03-06T11:20:55.293Z,1.90
2023-03-06T11:23:47.376Z,3.28
2023-03-06T11:26:43.832Z,2.78
2023-03-06T11:29:44.650Z,1.90
2023-03-06T11:32:42.958Z,2.35
2023-03-06T11:35:38.663Z,3.40
2023-03-06T11:38:49.567Z,2.47
2023-03-06T11:41:52.483Z,2.40
2023-03-06T11:44:50.194Z,1.92
2023-03-06T11:47:40.172Z,2.63
2023-03-06T11:50:34.070Z,1.92
2023-03-06T11:53:32.007Z,1.60
2023-03-06T11:56:23.433Z,2.08
2023-03-06T11:59:46.456Z,1.40
2023-03-06T12:03:11.003Z,2.00
2023-03-06T12:06:03.846Z,3.70
2023-03-06T12:09:01.663Z,2.25
2023-03-06T12:11:52.599Z,2.63
2023-03-06T12:14:56.357Z,2.65
2023-03-06T12:18:09.942Z,2.45
2023-03-06T12:21:10.684Z,2.65
2023-03-06T12:24:31.430Z,2.25
2023-03-06T12:28:01.866Z,2.15
2023-03-06T12:31:08.459Z,2.40
2023-03-06T12:34:18.883Z,3.20
2023-03-06T12:37:12.064Z,2.55
2023-03-06T12:40:14.014Z,2.05
2023-03-06T12:43:10.187Z,2.60
2023-03-06T12:46:09.479Z,2.35
2023-03-06T12:49:09.769Z,2.55
2023-03-06T12:51:57.612Z,3.67
2023-03-06T12:54:43.144Z,4.50
2023-03-06T12:57:30.135Z,3.95
2023-03-06T13:00:34.205Z,4.85
2023-03-06T13:03:50.149Z,4.93
2023-03-06T13:06:50.934Z,5.25
2023-03-06T13:09:57.529Z,6.25
2023-03-06T13:13:00.609Z,3.50
2023-03-06T13:16:04.014Z,4.75
2023-03-06T13:18:54.461Z,3.60
2023-03-06T13:21:42.817Z,4.03
2023-03-06T13:24:34.350Z,5.28
2023-03-06T13:28:00.117Z,4.80
2023-03-06T13:30:46.044Z,4.75
2023-03-06T13:33:53.014Z,5.80
2023-03-06T13:36:39.874Z,5.57
2023-03-06T13:39:25.565Z,6.30
2023-03-06T13:42:30.282Z,5.82
2023-03-06T13:45:29.916Z,7.55
2023-03-06T13:48:43.087Z,6.47
2023-03-06T13:51:34.618Z,5.35
2023-03-06T13:54:32.164Z,4.47
2023-03-06T13:57:38.136Z,7.20
2023-03-06T14:00:50.216Z,4.05
2023-03-06T14:04:17.392Z,5.00
2023-03-06T14:07:26.927Z,4.03
2023-03-06T14:10:22.609Z,4.47
2023-03-06T14:13:20.689Z,4.38
2023-03-06T14:16:18.059Z,4.20
2023-03-06T14:19:03.529Z,4.82
2023-03-06T14:21:56.355Z,5.78
2023-03-06T14:24:51.238Z,5.47
2023-03-06T14:27:48.993Z,6.25
2023-03-06T14:30:34.343Z,6.93
2023-03-06T14:33:34.601Z,6.38
2023-03-06T14:36:44.178Z,6.57
2023-03-06T14:39:40.286Z,5.75
2023-03-06T14:42:27.812Z,5.07
2023-03-06T14:45:17.922Z,4.85
2023-03-06T14:48:06.290Z,5.75
2023-03-06T14:50:56.805Z,4.47
2023-03-06T14:53:44.781Z,3.47
2023-03-06T14:56:32.405Z,4.93
2023-03-06T14:59:25.863Z,4.20
2023-03-06T15:02:18.480Z,5.28
2023-03-06T15:05:11.990Z,4.22
2023-03-06T15:08:04.597Z,3.30
2023-03-06T15:10:59.805Z,4.22
2023-03-06T15:14:00.879Z,4.07
2023-03-06T15:16:46.487Z,3.38
2023-03-06T15:19:40.667Z,4.05
2023-03-06T15:22:34.228Z,4.80
2023-03-06T15:25:30.178Z,4.88
2023-03-06T15:28:37.012Z,6.60
2023-03-06T15:31:28.549Z,5.65
2023-03-06T15:34:18.416Z,6.57
2023-03-06T15:37:25.617Z,7.07
2023-03-06T15:40:18.320Z,6.93
2023-03-06T15:43:03.709Z,9.27
2023-03-06T15:45:48.920Z,7.65
2023-03-06T15:48:35.715Z,8.07
2023-03-06T15:51:21.622Z,7.88
2023-03-06T15:54:12.256Z,9.68
2023-03-06T15:56:58.380Z,10.15
2023-03-06T15:59:45.300Z,9.38
2023-03-06T16:02:30.706Z,8.45
2023-03-06T16:05:17.810Z,7.03
2023-03-06T16:08:04.587Z,6.32
2023-03-06T16:10:52.537Z,7.93
2023-03-06T16:13:38.269Z,4.97
2023-03-06T16:16:34.432Z,6.75
2023-03-06T16:19:27.398Z,6.85
2023-03-06T16:22:14.867Z,5.22
2023-03-06T16:25:00.247Z,5.35
2023-03-06T16:27:50.875Z,7.38
2023-03-06T16:30:38.123Z,7.25
2023-03-06T16:33:23.664Z,6.60
2023-03-06T16:36:21.282Z,6.15
2023-03-06T16:39:11.369Z,6.53
2023-03-06T16:41:56.736Z,7.47
2023-03-06T16:44:42.262Z,7.90
2023-03-06T16:47:27.645Z,7.85
2023-03-06T16:50:24.322Z,8.02
2023-03-06T16:53:10.079Z,9.60
2023-03-06T16:55:55.750Z,9.23
2023-03-06T16:58:41.605Z,8.93
2023-03-06T17:01:27.870Z,11.00
2023-03-06T17:04:13.509Z,10.68
2023-03-06T17:06:59.196Z,10.88
2023-03-06T17:09:44.543Z,9.40
2023-03-06T17:12:31.744Z,10.77
2023-03-06T17:15:16.806Z,11.45
2023-03-06T17:18:02.384Z,13.13
2023-03-06T17:20:51.720Z,14.48
2023-03-06T17:23:37.318Z,14.77
2023-03-06T17:26:23.020Z,16.23
2023-03-06T17:29:09.645Z,19.10
2023-03-06T17:31:55.042Z,16.00
2023-03-06T17:34:40.919Z,17.10
2023-03-06T17:37:26.643Z,20.20
2023-03-06T17:40:12.473Z,18.95
2023-03-06T17:42:57.802Z,19.50
2023-03-06T17:45:43.422Z,23.42
2023-03-06T17:48:28.826Z,21.80
2023-03-06T17:51:14.817Z,20.95
2023-03-06T17:54:01.330Z,24.85
2023-03-06T17:56:47.129Z,25.90
2023-03-06T17:59:34.280Z,29.20
2023-03-06T18:02:20.255Z,26.80
2023-03-06T18:05:06.507Z,27.85
2023-03-06T18:07:51.781Z,29.58
2023-03-06T18:10:41.870Z,31.08
2023-03-06T18:13:27.534Z,29.90
2023-03-06T18:16:15.089Z,28.67
2023-03-06T18:19:00.959Z,30.75
2023-03-06T18:21:47.216Z,30.08
2023-03-06T18:24:32.771Z,29.83
2023-03-06T18:27:17.899Z,29.73
2023-03-06T18:30:03.783Z,30.30
2023-03-06T18:32:49.025Z,30.17
2023-03-06T18:35:35.798Z,27.13
2023-03-06T18:38:20.891Z,26.20
2023-03-06T18:41:10.950Z,27.98
2023-03-06T18:43:58.726Z,28.52
2023-03-06T18:46:44.365Z,26.52
2023-03-06T18:49:29.825Z,28.85
2023-03-06T18:52:15.588Z,28.55
2023-03-06T18:55:01.261Z,28.42
2023-03-06T18:57:47.040Z,29.17
2023-03-06T19:00:32.255Z,26.35
2023-03-06T19:03:17.805Z,29.10
2023-03-06T19:06:10.056Z,24.20
2023-03-06T19:08:58.874Z,26.25
2023-03-06T19:11:46.744Z,29.38
2023-03-06T19:14:31.758Z,29.02
2023-03-06T19:17:17.970Z,27.80
2023-03-06T19:20:03.971Z,25.80
2023-03-06T19:22:49.260Z,26.65
2023-03-06T19:25:35.274Z,28.33
2023-03-06T19:28:20.617Z,26.80
2023-03-06T19:31:11.103Z,26.52
2023-03-06T19:33:56.784Z,27.98
2023-03-06T19:36:42.382Z,28.58
2023-03-06T19:39:27.500Z,27.10
2023-03-06T19:42:13.936Z,26.65
2023-03-06T19:44:59.274Z,26.08
2023-03-06T19:47:44.966Z,28.25
2023-03-06T19:50:30.164Z,26.75
2023-03-06T19:53:15.966Z,26.20
2023-03-06T19:56:06.678Z,26.65
2023-03-06T19:58:52.175Z,25.42
2023-03-06T20:01:38.483Z,28.35
2023-03-06T20:04:24.193Z,26.67
2023-03-06T20:07:09.743Z,27.00
2023-03-06T20:10:00.212Z,25.92
2023-03-06T20:12:45.340Z,23.40
2023-03-06T20:15:31.156Z,24.58
2023-03-06T20:18:16.312Z,26.73
2023-03-06T20:21:03.445Z,27.60
2023-03-06T20:23:48.665Z,26.10
2023-03-06T20:26:35.006Z,24.30
2023-03-06T20:29:20.650Z,27.50
2023-03-06T20:32:06.191Z,27.85
2023-03-06T20:34:51.224Z,27.45
2023-03-06T20:37:38.037Z,28.88
2023-03-06T20:40:23.319Z,23.73
2023-03-06T20:43:09.093Z,26.63
2023-03-06T20:46:02.896Z,24.25
2023-03-06T20:48:50.219Z,25.67
2023-03-06T20:51:39.044Z,27.95
2023-03-06T20:54:25.352Z,26.13
2023-03-06T20:57:11.152Z,29.33
2023-03-06T20:59:56.832Z,20.30
2023-03-06T21:02:42.216Z,14.23
2023-03-06T21:05:27.844Z,11.95
2023-03-06T21:08:13.958Z,9.82
2023-03-06T21:10:59.979Z,9.43
2023-03-06T21:13:45.646Z,7.72
2023-03-06T21:16:31.723Z,9.90
2023-03-06T21:19:17.126Z,9.27
2023-03-06T21:22:02.861Z,6.38
2023-03-06T21:24:47.983Z,8.40
2023-03-06T21:27:33.503Z,6.93
2023-03-06T21:30:18.938Z,6.60
2023-03-06T21:33:04.668Z,6.90
2023-03-06T21:35:49.802Z,5.05
2023-03-06T21:38:35.758Z,6.32
2023-03-06T21:41:27.432Z,6.00
2023-03-06T21:44:12.963Z,5.57
2023-03-06T21:46:58.406Z,7.55
2023-03-06T21:49:44.205Z,5.38
2023-03-06T21:52:29.720Z,5.88
2023-03-06T21:55:15.221Z,4.82
2023-03-06T21:58:00.669Z,6.45
2023-03-06T22:00:46.352Z,4.25
2023-03-06T22:03:31.757Z,4.07
2023-03-06T22:06:20.419Z,3.13
2023-03-06T22:09:06.399Z,2.70
2023-03-06T22:11:51.560Z,6.50
2023-03-06T22:14:37.108Z,5.15
2023-03-06T22:17:22.610Z,6.25
2023-03-06T22:20:09.091Z,7.25
2023-03-06T22:22:54.453Z,6.47
2023-03-06T22:25:39.914Z,4.65
2023-03-06T22:28:25.545Z,4.35
2023-03-06T22:31:14.600Z,3.17
2023-03-06T22:34:01.623Z,5.22
2023-03-06T22:36:48.128Z,5.55
2023-03-06T22:39:33.660Z,3.40
2023-03-06T22:42:19.204Z,8.48
2023-03-06T22:45:05.181Z,3.90
2023-03-06T22:47:53.399Z,5.53
2023-03-06T22:50:40.660Z,4.07
2023-03-06T22:53:26.063Z,6.55
2023-03-06T22:56:14.258Z,6.65
2023-03-06T22:59:00.132Z,4.15
2023-03-06T23:01:45.246Z,7.13
2023-03-06T23:04:30.823Z,4.50
2023-03-06T23:07:16.295Z,9.10
2023-03-06T23:10:01.716Z,7.60
2023-03-06T23:13:06.146Z,5.90
2023-03-06T23:16:10.671Z,4.18
2023-03-06T23:19:16.217Z,3.47
2023-03-06T23:22:20.205Z,3.47
2023-03-06T23:25:24.577Z,5.65
2023-03-06T23:28:10.176Z,4.63
2023-03-06T23:30:55.532Z,3.97
2023-03-06T23:33:41.638Z,4.60
2023-03-06T23:36:27.519Z,5.78
2023-03-06T23:39:13.083Z,7.07
2023-03-06T23:41:58.723Z,5.25
2023-03-06T23:44:44.175Z,4.30
2023-03-06T23:47:33.918Z,4.30
2023-03-06T23:50:19.567Z,5.65
2023-03-06T23:53:05.008Z,3.67
2023-03-06T23:55:51.191Z,4.90
2023-03-06T23:58:37.396Z,6.63
